sensor_id;sensor_type;location;lat;lon;timestamp;temperature;humidity
75489;HTU21D;64069;46.396;48.102;2023-08-20T00:00:47;24.41;41.97
75489;HTU21D;64069;46.396;48.102;2023-08-20T00:03:20;24.26;42.20
75489;HTU21D;64069;46.396;48.102;2023-08-20T00:05:46;24.16;42.38
75489;HTU21D;64069;46.396;48.102;2023-08-20T00:08:19;24.09;42.26
75489;HTU21D;64069;46.396;48.102;2023-08-20T00:10:51;24.08;41.98
75489;HTU21D;64069;46.396;48.102;2023-08-20T00:13:17;24.14;41.44
75489;HTU21D;64069;46.396;48.102;2023-08-20T00:15:49;24.24;41.04
75489;HTU21D;64069;46.396;48.102;2023-08-20T00:18:22;24.29;40.82
75489;HTU21D;64069;46.396;48.102;2023-08-20T00:20:55;24.34;40.59
75489;HTU21D;64069;46.396;48.102;2023-08-20T00:23:21;24.39;40.29
75489;HTU21D;64069;46.396;48.102;2023-08-20T00:25:54;24.43;40.20
75489;HTU21D;64069;46.396;48.102;2023-08-20T00:28:20;24.43;40.08
75489;HTU21D;64069;46.396;48.102;2023-08-20T00:30:53;24.44;40.03
75489;HTU21D;64069;46.396;48.102;2023-08-20T00:33:26;24.43;39.97
75489;HTU21D;64069;46.396;48.102;2023-08-20T00:35:53;24.44;39.87
75489;HTU21D;64069;46.396;48.102;2023-08-20T00:38:27;24.44;39.83
75489;HTU21D;64069;46.396;48.102;2023-08-20T00:41:01;24.46;39.54
75489;HTU21D;64069;46.396;48.102;2023-08-20T00:43:27;24.57;39.14
75489;HTU21D;64069;46.396;48.102;2023-08-20T00:45:59;24.72;38.57
75489;HTU21D;64069;46.396;48.102;2023-08-20T00:48:32;24.89;37.98
75489;HTU21D;64069;46.396;48.102;2023-08-20T00:50:59;25.07;37.27
75489;HTU21D;64069;46.396;48.102;2023-08-20T00:53:37;25.33;36.25
75489;HTU21D;64069;46.396;48.102;2023-08-20T00:56:11;25.59;35.53
75489;HTU21D;64069;46.396;48.102;2023-08-20T00:58:38;25.82;34.85
75489;HTU21D;64069;46.396;48.102;2023-08-20T01:01:10;26.05;34.22
75489;HTU21D;64069;46.396;48.102;2023-08-20T01:03:42;26.24;33.70
75489;HTU21D;64069;46.396;48.102;2023-08-20T01:06:23;26.31;33.57
75489;HTU21D;64069;46.396;48.102;2023-08-20T01:09:10;26.54;32.70
75489;HTU21D;64069;46.396;48.102;2023-08-20T01:11:52;26.79;32.24
75489;HTU21D;64069;46.396;48.102;2023-08-20T01:14:29;26.87;32.17
75489;HTU21D;64069;46.396;48.102;2023-08-20T01:16:55;26.97;31.80
75489;HTU21D;64069;46.396;48.102;2023-08-20T01:19:27;27.13;31.51
75489;HTU21D;64069;46.396;48.102;2023-08-20T01:22:20;27.29;31.09
75489;HTU21D;64069;46.396;48.102;2023-08-20T01:25:03;27.43;30.93
75489;HTU21D;64069;46.396;48.102;2023-08-20T01:30:33;27.52;30.64
75489;HTU21D;64069;46.396;48.102;2023-08-20T01:33:06;27.50;30.40
75489;HTU21D;64069;46.396;48.102;2023-08-20T01:35:32;27.43;30.52
75489;HTU21D;64069;46.396;48.102;2023-08-20T01:38:14;27.30;31.29
75489;HTU21D;64069;46.396;48.102;2023-08-20T01:40:47;27.15;31.40
75489;HTU21D;64069;46.396;48.102;2023-08-20T01:43:14;26.99;31.57
75489;HTU21D;64069;46.396;48.102;2023-08-20T01:45:47;26.86;31.75
75489;HTU21D;64069;46.396;48.102;2023-08-20T01:48:19;26.76;31.91
75489;HTU21D;64069;46.396;48.102;2023-08-20T01:50:45;26.69;31.94
75489;HTU21D;64069;46.396;48.102;2023-08-20T01:53:18;26.66;31.99
75489;HTU21D;64069;46.396;48.102;2023-08-20T01:55:57;26.57;32.05
75489;HTU21D;64069;46.396;48.102;2023-08-20T01:58:29;26.50;32.26
75489;HTU21D;64069;46.396;48.102;2023-08-20T02:01:03;26.42;32.29
75489;HTU21D;64069;46.396;48.102;2023-08-20T02:03:30;26.38;32.47
75489;HTU21D;64069;46.396;48.102;2023-08-20T02:06:03;26.30;32.75
75489;HTU21D;64069;46.396;48.102;2023-08-20T02:08:36;26.20;33.22
75489;HTU21D;64069;46.396;48.102;2023-08-20T02:11:03;26.06;33.82
75489;HTU21D;64069;46.396;48.102;2023-08-20T02:13:35;25.90;34.49
75489;HTU21D;64069;46.396;48.102;2023-08-20T02:16:07;25.75;35.24
75489;HTU21D;64069;46.396;48.102;2023-08-20T02:18:33;25.67;35.82
75489;HTU21D;64069;46.396;48.102;2023-08-20T02:21:05;25.65;36.35
75489;HTU21D;64069;46.396;48.102;2023-08-20T02:23:37;25.66;36.68
75489;HTU21D;64069;46.396;48.102;2023-08-20T02:26:05;25.72;36.92
75489;HTU21D;64069;46.396;48.102;2023-08-20T02:28:38;25.77;37.12
75489;HTU21D;64069;46.396;48.102;2023-08-20T02:31:04;25.79;37.41
75489;HTU21D;64069;46.396;48.102;2023-08-20T02:33:38;25.78;37.60
75489;HTU21D;64069;46.396;48.102;2023-08-20T02:36:12;25.78;37.59
75489;HTU21D;64069;46.396;48.102;2023-08-20T02:38:45;25.72;37.69
75489;HTU21D;64069;46.396;48.102;2023-08-20T02:41:18;25.59;37.66
75489;HTU21D;64069;46.396;48.102;2023-08-20T02:43:44;25.46;37.79
75489;HTU21D;64069;46.396;48.102;2023-08-20T02:46:17;25.38;37.86
75489;HTU21D;64069;46.396;48.102;2023-08-20T02:48:49;25.30;37.95
75489;HTU21D;64069;46.396;48.102;2023-08-20T02:51:22;25.28;37.94
75489;HTU21D;64069;46.396;48.102;2023-08-20T02:54:08;25.36;37.79
75489;HTU21D;64069;46.396;48.102;2023-08-20T02:56:41;25.39;37.61
75489;HTU21D;64069;46.396;48.102;2023-08-20T02:59:07;25.39;37.62
75489;HTU21D;64069;46.396;48.102;2023-08-20T03:01:40;25.38;37.76
75489;HTU21D;64069;46.396;48.102;2023-08-20T03:04:12;25.47;37.92
75489;HTU21D;64069;46.396;48.102;2023-08-20T03:06:38;25.61;37.85
75489;HTU21D;64069;46.396;48.102;2023-08-20T03:09:10;25.72;37.74
75489;HTU21D;64069;46.396;48.102;2023-08-20T03:11:43;25.83;37.55
75489;HTU21D;64069;46.396;48.102;2023-08-20T03:14:09;25.94;37.20
75489;HTU21D;64069;46.396;48.102;2023-08-20T03:16:41;26.04;36.83
75489;HTU21D;64069;46.396;48.102;2023-08-20T03:19:15;26.17;36.56
75489;HTU21D;64069;46.396;48.102;2023-08-20T03:21:41;26.31;36.18
75489;HTU21D;64069;46.396;48.102;2023-08-20T03:24:13;26.35;36.17
75489;HTU21D;64069;46.396;48.102;2023-08-20T03:26:45;26.27;36.22
75489;HTU21D;64069;46.396;48.102;2023-08-20T03:29:13;26.16;36.56
75489;HTU21D;64069;46.396;48.102;2023-08-20T03:31:46;26.09;36.92
75489;HTU21D;64069;46.396;48.102;2023-08-20T03:34:19;26.13;37.25
75489;HTU21D;64069;46.396;48.102;2023-08-20T03:36:52;26.22;37.33
75489;HTU21D;64069;46.396;48.102;2023-08-20T03:39:18;26.26;37.59
75489;HTU21D;64069;46.396;48.102;2023-08-20T03:41:53;26.37;37.70
75489;HTU21D;64069;46.396;48.102;2023-08-20T03:44:19;26.58;37.77
75489;HTU21D;64069;46.396;48.102;2023-08-20T03:46:51;26.79;37.48
75489;HTU21D;64069;46.396;48.102;2023-08-20T03:49:24;26.92;37.54
75489;HTU21D;64069;46.396;48.102;2023-08-20T03:51:56;27.15;37.24
75489;HTU21D;64069;46.396;48.102;2023-08-20T03:54:42;27.40;36.77
75489;HTU21D;64069;46.396;48.102;2023-08-20T03:57:15;27.60;36.52
75489;HTU21D;64069;46.396;48.102;2023-08-20T03:59:40;27.84;35.99
75489;HTU21D;64069;46.396;48.102;2023-08-20T04:02:13;27.89;35.85
75489;HTU21D;64069;46.396;48.102;2023-08-20T04:04:47;27.99;35.92
75489;HTU21D;64069;46.396;48.102;2023-08-20T04:07:13;28.06;35.91
75489;HTU21D;64069;46.396;48.102;2023-08-20T04:09:45;28.18;35.88
75489;HTU21D;64069;46.396;48.102;2023-08-20T04:12:17;28.34;35.70
75489;HTU21D;64069;46.396;48.102;2023-08-20T04:14:43;28.48;35.68
75489;HTU21D;64069;46.396;48.102;2023-08-20T04:17:15;28.74;35.61
75489;HTU21D;64069;46.396;48.102;2023-08-20T04:19:47;28.94;35.37
75489;HTU21D;64069;46.396;48.102;2023-08-20T04:22:13;29.17;35.10
75489;HTU21D;64069;46.396;48.102;2023-08-20T04:24:45;29.37;34.89
75489;HTU21D;64069;46.396;48.102;2023-08-20T04:27:17;29.66;34.73
75489;HTU21D;64069;46.396;48.102;2023-08-20T04:29:44;29.86;34.43
75489;HTU21D;64069;46.396;48.102;2023-08-20T04:32:16;30.11;34.36
75489;HTU21D;64069;46.396;48.102;2023-08-20T04:34:50;30.49;34.04
75489;HTU21D;64069;46.396;48.102;2023-08-20T04:37:24;30.82;33.61
75489;HTU21D;64069;46.396;48.102;2023-08-20T04:39:51;30.96;33.41
75489;HTU21D;64069;46.396;48.102;2023-08-20T04:42:24;31.04;33.34
75489;HTU21D;64069;46.396;48.102;2023-08-20T04:44:51;31.28;33.28
75489;HTU21D;64069;46.396;48.102;2023-08-20T04:47:25;31.66;32.64
75489;HTU21D;64069;46.396;48.102;2023-08-20T04:49:57;32.04;32.11
75489;HTU21D;64069;46.396;48.102;2023-08-20T04:52:23;32.24;31.64
75489;HTU21D;64069;46.396;48.102;2023-08-20T04:54:56;32.42;31.57
75489;HTU21D;64069;46.396;48.102;2023-08-20T04:57:22;32.53;31.43
75489;HTU21D;64069;46.396;48.102;2023-08-20T04:59:56;32.46;31.32
75489;HTU21D;64069;46.396;48.102;2023-08-20T05:03:04;32.44;30.94
75489;HTU21D;64069;46.396;48.102;2023-08-20T05:05:38;32.29;30.77
75489;HTU21D;64069;46.396;48.102;2023-08-20T05:08:24;32.27;30.64
75489;HTU21D;64069;46.396;48.102;2023-08-20T05:10:57;32.61;30.29
75489;HTU21D;64069;46.396;48.102;2023-08-20T05:13:23;32.72;29.74
75489;HTU21D;64069;46.396;48.102;2023-08-20T05:15:56;32.79;29.39
75489;HTU21D;64069;46.396;48.102;2023-08-20T05:18:28;32.89;29.28
75489;HTU21D;64069;46.396;48.102;2023-08-20T05:20:54;33.08;29.36
75489;HTU21D;64069;46.396;48.102;2023-08-20T05:23:28;33.15;29.06
75489;HTU21D;64069;46.396;48.102;2023-08-20T05:25:54;33.33;28.95
75489;HTU21D;64069;46.396;48.102;2023-08-20T05:28:26;33.34;28.77
75489;HTU21D;64069;46.396;48.102;2023-08-20T05:30:59;33.50;29.02
75489;HTU21D;64069;46.396;48.102;2023-08-20T05:33:25;33.91;28.65
75489;HTU21D;64069;46.396;48.102;2023-08-20T05:35:59;34.18;28.26
75489;HTU21D;64069;46.396;48.102;2023-08-20T05:38:32;34.11;28.03
75489;HTU21D;64069;46.396;48.102;2023-08-20T05:40:58;34.02;28.25
75489;HTU21D;64069;46.396;48.102;2023-08-20T05:43:30;33.99;28.16
75489;HTU21D;64069;46.396;48.102;2023-08-20T05:46:03;34.06;28.16
75489;HTU21D;64069;46.396;48.102;2023-08-20T05:48:29;34.24;27.87
75489;HTU21D;64069;46.396;48.102;2023-08-20T05:51:02;34.51;27.62
75489;HTU21D;64069;46.396;48.102;2023-08-20T05:53:38;34.55;27.63
75489;HTU21D;64069;46.396;48.102;2023-08-20T05:56:11;34.66;27.15
75489;HTU21D;64069;46.396;48.102;2023-08-20T05:58:45;34.90;26.78
75489;HTU21D;64069;46.396;48.102;2023-08-20T06:01:11;34.88;26.51
75489;HTU21D;64069;46.396;48.102;2023-08-20T06:03:43;34.70;26.51
75489;HTU21D;64069;46.396;48.102;2023-08-20T06:06:15;34.77;26.60
75489;HTU21D;64069;46.396;48.102;2023-08-20T06:09:01;34.85;26.64
75489;HTU21D;64069;46.396;48.102;2023-08-20T06:11:33;34.97;26.46
75489;HTU21D;64069;46.396;48.102;2023-08-20T06:13:59;35.05;26.16
75489;HTU21D;64069;46.396;48.102;2023-08-20T06:16:31;35.03;25.61
75489;HTU21D;64069;46.396;48.102;2023-08-20T06:19:03;34.77;25.56
75489;HTU21D;64069;46.396;48.102;2023-08-20T06:21:29;34.63;25.67
75489;HTU21D;64069;46.396;48.102;2023-08-20T06:24:01;34.63;25.77
75489;HTU21D;64069;46.396;48.102;2023-08-20T06:26:33;34.66;25.42
75489;HTU21D;64069;46.396;48.102;2023-08-20T06:28:59;34.76;25.33
75489;HTU21D;64069;46.396;48.102;2023-08-20T06:31:31;35.05;24.65
75489;HTU21D;64069;46.396;48.102;2023-08-20T06:34:03;35.06;24.56
75489;HTU21D;64069;46.396;48.102;2023-08-20T06:36:29;35.03;24.62
75489;HTU21D;64069;46.396;48.102;2023-08-20T06:39:02;35.04;24.62
75489;HTU21D;64069;46.396;48.102;2023-08-20T06:41:35;35.07;24.43
75489;HTU21D;64069;46.396;48.102;2023-08-20T06:44:18;35.07;24.66
75489;HTU21D;64069;46.396;48.102;2023-08-20T06:46:51;35.34;24.38
75489;HTU21D;64069;46.396;48.102;2023-08-20T06:49:23;35.54;23.84
75489;HTU21D;64069;46.396;48.102;2023-08-20T06:51:49;35.63;23.73
75489;HTU21D;64069;46.396;48.102;2023-08-20T06:54:22;35.49;23.74
75489;HTU21D;64069;46.396;48.102;2023-08-20T06:57:01;35.60;23.76
75489;HTU21D;64069;46.396;48.102;2023-08-20T06:59:27;35.71;23.46
75489;HTU21D;64069;46.396;48.102;2023-08-20T07:02:00;35.85;22.77
75489;HTU21D;64069;46.396;48.102;2023-08-20T07:04:32;35.84;22.86
75489;HTU21D;64069;46.396;48.102;2023-08-20T07:07:05;35.98;22.07
75489;HTU21D;64069;46.396;48.102;2023-08-20T07:09:37;35.95;21.85
75489;HTU21D;64069;46.396;48.102;2023-08-20T07:12:10;36.02;21.57
75489;HTU21D;64069;46.396;48.102;2023-08-20T07:14:36;36.11;21.70
75489;HTU21D;64069;46.396;48.102;2023-08-20T07:17:08;36.38;21.73
75489;HTU21D;64069;46.396;48.102;2023-08-20T07:19:40;36.56;21.36
75489;HTU21D;64069;46.396;48.102;2023-08-20T07:22:06;36.49;20.77
75489;HTU21D;64069;46.396;48.102;2023-08-20T07:24:38;36.48;21.03
75489;HTU21D;64069;46.396;48.102;2023-08-20T07:27:10;36.59;20.70
75489;HTU21D;64069;46.396;48.102;2023-08-20T07:29:38;36.70;20.33
75489;HTU21D;64069;46.396;48.102;2023-08-20T07:32:10;36.71;20.24
75489;HTU21D;64069;46.396;48.102;2023-08-20T07:34:44;36.74;20.34
75489;HTU21D;64069;46.396;48.102;2023-08-20T07:37:10;36.82;20.02
75489;HTU21D;64069;46.396;48.102;2023-08-20T07:39:42;37.03;19.69
75489;HTU21D;64069;46.396;48.102;2023-08-20T07:42:14;37.13;19.75
75489;HTU21D;64069;46.396;48.102;2023-08-20T07:44:47;37.13;19.76
75489;HTU21D;64069;46.396;48.102;2023-08-20T07:47:20;37.16;19.91
75489;HTU21D;64069;46.396;48.102;2023-08-20T07:49:46;37.34;19.59
75489;HTU21D;64069;46.396;48.102;2023-08-20T07:52:18;37.32;19.41
75489;HTU21D;64069;46.396;48.102;2023-08-20T07:54:50;37.21;19.27
75489;HTU21D;64069;46.396;48.102;2023-08-20T07:57:16;37.02;19.77
75489;HTU21D;64069;46.396;48.102;2023-08-20T07:59:48;37.06;19.63
75489;HTU21D;64069;46.396;48.102;2023-08-20T08:02:21;37.17;19.66
75489;HTU21D;64069;46.396;48.102;2023-08-20T08:04:47;37.23;19.57
75489;HTU21D;64069;46.396;48.102;2023-08-20T08:07:19;37.36;19.42
75489;HTU21D;64069;46.396;48.102;2023-08-20T08:09:59;37.45;19.18
75489;HTU21D;64069;46.396;48.102;2023-08-20T08:12:25;37.45;18.93
75489;HTU21D;64069;46.396;48.102;2023-08-20T08:14:58;37.45;18.60
75489;HTU21D;64069;46.396;48.102;2023-08-20T08:17:31;37.51;18.75
75489;HTU21D;64069;46.396;48.102;2023-08-20T08:19:57;37.71;18.58
75489;HTU21D;64069;46.396;48.102;2023-08-20T08:22:30;37.62;18.47
75489;HTU21D;64069;46.396;48.102;2023-08-20T08:25:02;37.63;18.43
75489;HTU21D;64069;46.396;48.102;2023-08-20T08:27:28;37.67;18.56
75489;HTU21D;64069;46.396;48.102;2023-08-20T08:30:01;37.60;18.41
75489;HTU21D;64069;46.396;48.102;2023-08-20T08:32:34;37.48;18.54
75489;HTU21D;64069;46.396;48.102;2023-08-20T08:35:00;37.57;18.53
75489;HTU21D;64069;46.396;48.102;2023-08-20T08:37:33;37.57;18.51
75489;HTU21D;64069;46.396;48.102;2023-08-20T08:40:07;37.63;18.30
75489;HTU21D;64069;46.396;48.102;2023-08-20T08:42:33;37.66;18.23
75489;HTU21D;64069;46.396;48.102;2023-08-20T08:45:06;37.69;18.44
75489;HTU21D;64069;46.396;48.102;2023-08-20T08:47:39;37.75;18.53
75489;HTU21D;64069;46.396;48.102;2023-08-20T08:50:06;37.76;18.09
75489;HTU21D;64069;46.396;48.102;2023-08-20T08:52:39;37.85;18.02
75489;HTU21D;64069;46.396;48.102;2023-08-20T08:55:12;37.87;17.86
75489;HTU21D;64069;46.396;48.102;2023-08-20T08:57:38;37.93;17.55
75489;HTU21D;64069;46.396;48.102;2023-08-20T09:00:12;37.91;17.62
75489;HTU21D;64069;46.396;48.102;2023-08-20T09:02:46;37.95;17.58
75489;HTU21D;64069;46.396;48.102;2023-08-20T09:05:13;37.94;17.57
75489;HTU21D;64069;46.396;48.102;2023-08-20T09:07:57;37.86;17.70
75489;HTU21D;64069;46.396;48.102;2023-08-20T09:10:30;37.92;17.72
75489;HTU21D;64069;46.396;48.102;2023-08-20T09:13:04;37.99;17.48
75489;HTU21D;64069;46.396;48.102;2023-08-20T09:15:33;38.07;17.50
75489;HTU21D;64069;46.396;48.102;2023-08-20T09:18:09;38.19;17.29
75489;HTU21D;64069;46.396;48.102;2023-08-20T09:20:42;38.18;17.35
75489;HTU21D;64069;46.396;48.102;2023-08-20T09:23:15;38.20;17.13
75489;HTU21D;64069;46.396;48.102;2023-08-20T09:25:42;38.28;16.95
75489;HTU21D;64069;46.396;48.102;2023-08-20T09:28:15;38.45;16.93
75489;HTU21D;64069;46.396;48.102;2023-08-20T09:31:00;38.45;16.35
75489;HTU21D;64069;46.396;48.102;2023-08-20T09:33:35;38.33;16.26
75489;HTU21D;64069;46.396;48.102;2023-08-20T09:36:08;38.20;16.25
75489;HTU21D;64069;46.396;48.102;2023-08-20T09:38:42;38.16;16.54
75489;HTU21D;64069;46.396;48.102;2023-08-20T09:41:08;38.23;16.09
75489;HTU21D;64069;46.396;48.102;2023-08-20T09:43:41;38.28;16.33
75489;HTU21D;64069;46.396;48.102;2023-08-20T09:46:16;38.47;16.19
75489;HTU21D;64069;46.396;48.102;2023-08-20T09:48:51;38.58;15.94
75489;HTU21D;64069;46.396;48.102;2023-08-20T09:51:25;38.49;16.02
75489;HTU21D;64069;46.396;48.102;2023-08-20T09:54:23;38.32;15.83
75489;HTU21D;64069;46.396;48.102;2023-08-20T09:57:01;38.17;15.65
75489;HTU21D;64069;46.396;48.102;2023-08-20T09:59:34;38.18;15.94
75489;HTU21D;64069;46.396;48.102;2023-08-20T10:02:02;38.35;15.95
75489;HTU21D;64069;46.396;48.102;2023-08-20T10:04:34;38.40;15.35
75489;HTU21D;64069;46.396;48.102;2023-08-20T10:07:07;38.26;15.33
75489;HTU21D;64069;46.396;48.102;2023-08-20T10:09:48;38.32;15.45
75489;HTU21D;64069;46.396;48.102;2023-08-20T10:12:24;38.32;15.45
75489;HTU21D;64069;46.396;48.102;2023-08-20T10:14:51;38.34;15.19
75489;HTU21D;64069;46.396;48.102;2023-08-20T10:17:23;38.33;14.80
75489;HTU21D;64069;46.396;48.102;2023-08-20T10:20:01;38.33;14.81
75489;HTU21D;64069;46.396;48.102;2023-08-20T10:22:38;38.36;14.93
75489;HTU21D;64069;46.396;48.102;2023-08-20T10:25:24;38.40;14.61
75489;HTU21D;64069;46.396;48.102;2023-08-20T10:28:27;38.44;15.13
75489;HTU21D;64069;46.396;48.102;2023-08-20T10:31:08;38.38;14.94
75489;HTU21D;64069;46.396;48.102;2023-08-20T10:36:21;38.39;14.89
75489;HTU21D;64069;46.396;48.102;2023-08-20T10:38:50;38.48;14.72
75489;HTU21D;64069;46.396;48.102;2023-08-20T10:41:26;38.49;14.72
75489;HTU21D;64069;46.396;48.102;2023-08-20T10:43:59;38.38;14.94
75489;HTU21D;64069;46.396;48.102;2023-08-20T10:46:28;38.40;14.64
75489;HTU21D;64069;46.396;48.102;2023-08-20T10:49:04;38.39;14.36
75489;HTU21D;64069;46.396;48.102;2023-08-20T10:51:38;38.38;14.27
75489;HTU21D;64069;46.396;48.102;2023-08-20T10:54:06;38.35;14.44
75489;HTU21D;64069;46.396;48.102;2023-08-20T10:59:17;38.26;14.35
75489;HTU21D;64069;46.396;48.102;2023-08-20T11:01:47;38.28;14.10
75489;HTU21D;64069;46.396;48.102;2023-08-20T11:04:24;38.39;14.00
75489;HTU21D;64069;46.396;48.102;2023-08-20T11:07:07;38.51;14.20
75489;HTU21D;64069;46.396;48.102;2023-08-20T11:09:47;38.53;14.55
75489;HTU21D;64069;46.396;48.102;2023-08-20T11:12:22;38.48;14.34
75489;HTU21D;64069;46.396;48.102;2023-08-20T11:14:47;38.44;14.24
75489;HTU21D;64069;46.396;48.102;2023-08-20T11:17:20;38.38;14.25
75489;HTU21D;64069;46.396;48.102;2023-08-20T11:20:00;38.46;14.40
75489;HTU21D;64069;46.396;48.102;2023-08-20T11:22:40;38.54;14.21
75489;HTU21D;64069;46.396;48.102;2023-08-20T11:25:13;38.52;13.99
75489;HTU21D;64069;46.396;48.102;2023-08-20T11:27:47;38.50;13.97
75489;HTU21D;64069;46.396;48.102;2023-08-20T11:30:13;38.64;13.88
75489;HTU21D;64069;46.396;48.102;2023-08-20T11:32:46;38.78;13.88
75489;HTU21D;64069;46.396;48.102;2023-08-20T11:35:21;38.89;14.18
75489;HTU21D;64069;46.396;48.102;2023-08-20T11:37:47;38.99;13.84
75489;HTU21D;64069;46.396;48.102;2023-08-20T11:40:22;38.89;13.66
75489;HTU21D;64069;46.396;48.102;2023-08-20T11:42:55;38.82;13.77
75489;HTU21D;64069;46.396;48.102;2023-08-20T11:45:27;38.84;13.70
75489;HTU21D;64069;46.396;48.102;2023-08-20T11:47:56;38.89;13.52
75489;HTU21D;64069;46.396;48.102;2023-08-20T11:50:31;38.83;13.60
75489;HTU21D;64069;46.396;48.102;2023-08-20T11:53:04;38.62;13.51
75489;HTU21D;64069;46.396;48.102;2023-08-20T11:55:30;38.24;13.94
75489;HTU21D;64069;46.396;48.102;2023-08-20T11:58:02;37.92;14.18
75489;HTU21D;64069;46.396;48.102;2023-08-20T12:00:35;37.76;14.65
75489;HTU21D;64069;46.396;48.102;2023-08-20T12:03:09;37.90;14.91
75489;HTU21D;64069;46.396;48.102;2023-08-20T12:05:35;38.04;14.45
75489;HTU21D;64069;46.396;48.102;2023-08-20T12:08:07;38.15;14.26
75489;HTU21D;64069;46.396;48.102;2023-08-20T12:10:42;38.34;14.13
75489;HTU21D;64069;46.396;48.102;2023-08-20T12:13:14;38.45;14.20
75489;HTU21D;64069;46.396;48.102;2023-08-20T12:15:40;38.49;13.82
75489;HTU21D;64069;46.396;48.102;2023-08-20T12:18:13;38.39;13.58
75489;HTU21D;64069;46.396;48.102;2023-08-20T12:20:39;38.35;13.99
75489;HTU21D;64069;46.396;48.102;2023-08-20T12:23:11;38.31;14.52
75489;HTU21D;64069;46.396;48.102;2023-08-20T12:25:50;38.30;14.32
75489;HTU21D;64069;46.396;48.102;2023-08-20T12:28:23;38.35;14.24
75489;HTU21D;64069;46.396;48.102;2023-08-20T12:30:51;38.39;14.56
75489;HTU21D;64069;46.396;48.102;2023-08-20T12:33:24;38.50;14.55
75489;HTU21D;64069;46.396;48.102;2023-08-20T12:35:57;38.54;14.30
75489;HTU21D;64069;46.396;48.102;2023-08-20T12:38:23;38.53;14.01
75489;HTU21D;64069;46.396;48.102;2023-08-20T12:40:56;38.48;14.08
75489;HTU21D;64069;46.396;48.102;2023-08-20T12:43:22;38.38;13.98
75489;HTU21D;64069;46.396;48.102;2023-08-20T12:45:54;38.35;14.25
75489;HTU21D;64069;46.396;48.102;2023-08-20T12:48:26;38.32;13.85
75489;HTU21D;64069;46.396;48.102;2023-08-20T12:50:58;38.22;14.22
75489;HTU21D;64069;46.396;48.102;2023-08-20T12:53:31;38.12;14.01
75489;HTU21D;64069;46.396;48.102;2023-08-20T12:55:58;38.11;14.25
75489;HTU21D;64069;46.396;48.102;2023-08-20T12:58:30;38.07;14.07
75489;HTU21D;64069;46.396;48.102;2023-08-20T13:01:03;37.97;14.26
75489;HTU21D;64069;46.396;48.102;2023-08-20T13:03:29;37.79;14.71
75489;HTU21D;64069;46.396;48.102;2023-08-20T13:06:02;37.65;14.89
75489;HTU21D;64069;46.396;48.102;2023-08-20T13:08:34;37.56;14.97
75489;HTU21D;64069;46.396;48.102;2023-08-20T13:11:08;37.51;14.90
75489;HTU21D;64069;46.396;48.102;2023-08-20T13:13:43;37.48;14.97
75489;HTU21D;64069;46.396;48.102;2023-08-20T13:16:09;37.45;15.22
75489;HTU21D;64069;46.396;48.102;2023-08-20T13:18:41;37.38;15.19
75489;HTU21D;64069;46.396;48.102;2023-08-20T13:21:21;37.15;15.44
75489;HTU21D;64069;46.396;48.102;2023-08-20T13:23:54;36.92;15.92
75489;HTU21D;64069;46.396;48.102;2023-08-20T13:26:27;36.71;16.28
75489;HTU21D;64069;46.396;48.102;2023-08-20T13:28:52;36.52;16.48
75489;HTU21D;64069;46.396;48.102;2023-08-20T13:31:26;36.39;16.84
75489;HTU21D;64069;46.396;48.102;2023-08-20T13:33:58;36.42;16.87
75489;HTU21D;64069;46.396;48.102;2023-08-20T13:36:24;36.43;16.93
75489;HTU21D;64069;46.396;48.102;2023-08-20T13:38:56;36.46;16.83
75489;HTU21D;64069;46.396;48.102;2023-08-20T13:41:22;36.49;16.99
75489;HTU21D;64069;46.396;48.102;2023-08-20T13:43:54;36.49;17.02
75489;HTU21D;64069;46.396;48.102;2023-08-20T13:46:27;36.47;17.00
75489;HTU21D;64069;46.396;48.102;2023-08-20T13:48:53;36.44;17.09
75489;HTU21D;64069;46.396;48.102;2023-08-20T13:51:26;36.40;17.22
75489;HTU21D;64069;46.396;48.102;2023-08-20T13:53:58;36.38;17.21
75489;HTU21D;64069;46.396;48.102;2023-08-20T13:56:24;36.36;17.32
75489;HTU21D;64069;46.396;48.102;2023-08-20T13:58:57;36.34;17.28
75489;HTU21D;64069;46.396;48.102;2023-08-20T14:01:30;36.32;17.22
75489;HTU21D;64069;46.396;48.102;2023-08-20T14:03:56;36.31;17.13
75489;HTU21D;64069;46.396;48.102;2023-08-20T14:06:29;36.27;16.93
75489;HTU21D;64069;46.396;48.102;2023-08-20T14:09:01;36.25;17.11
75489;HTU21D;64069;46.396;48.102;2023-08-20T14:11:37;36.23;17.12
75489;HTU21D;64069;46.396;48.102;2023-08-20T14:14:09;36.22;17.03
75489;HTU21D;64069;46.396;48.102;2023-08-20T14:16:35;36.18;17.37
75489;HTU21D;64069;46.396;48.102;2023-08-20T14:19:07;36.12;17.86
75489;HTU21D;64069;46.396;48.102;2023-08-20T14:21:39;36.06;18.19
75489;HTU21D;64069;46.396;48.102;2023-08-20T14:24:19;36.00;18.40
75489;HTU21D;64069;46.396;48.102;2023-08-20T14:26:51;35.93;18.24
75489;HTU21D;64069;46.396;48.102;2023-08-20T14:29:17;35.86;18.12
75489;HTU21D;64069;46.396;48.102;2023-08-20T14:31:49;35.81;18.53
75489;HTU21D;64069;46.396;48.102;2023-08-20T14:34:21;35.77;18.47
75489;HTU21D;64069;46.396;48.102;2023-08-20T14:36:47;35.71;18.42
75489;HTU21D;64069;46.396;48.102;2023-08-20T14:39:19;35.65;19.72
75489;HTU21D;64069;46.396;48.102;2023-08-20T14:41:51;35.52;19.47
75489;HTU21D;64069;46.396;48.102;2023-08-20T14:44:17;35.42;19.58
75489;HTU21D;64069;46.396;48.102;2023-08-20T14:46:49;35.31;19.62
75489;HTU21D;64069;46.396;48.102;2023-08-20T14:49:22;35.16;21.22
75489;HTU21D;64069;46.396;48.102;2023-08-20T14:51:54;34.96;22.68
75489;HTU21D;64069;46.396;48.102;2023-08-20T14:54:20;34.74;24.63
75489;HTU21D;64069;46.396;48.102;2023-08-20T14:56:52;34.36;24.78
75489;HTU21D;64069;46.396;48.102;2023-08-20T14:59:24;34.11;24.37
75489;HTU21D;64069;46.396;48.102;2023-08-20T15:01:51;33.95;26.16
75489;HTU21D;64069;46.396;48.102;2023-08-20T15:04:23;33.72;27.97
75489;HTU21D;64069;46.396;48.102;2023-08-20T15:06:49;33.44;28.39
75489;HTU21D;64069;46.396;48.102;2023-08-20T15:09:22;33.23;28.18
75489;HTU21D;64069;46.396;48.102;2023-08-20T15:11:55;33.07;29.13
75489;HTU21D;64069;46.396;48.102;2023-08-20T15:14:21;32.88;29.61
75489;HTU21D;64069;46.396;48.102;2023-08-20T15:16:54;32.76;29.12
75489;HTU21D;64069;46.396;48.102;2023-08-20T15:19:34;32.69;29.20
75489;HTU21D;64069;46.396;48.102;2023-08-20T15:22:14;32.62;29.93
75489;HTU21D;64069;46.396;48.102;2023-08-20T15:24:40;32.54;31.06
75489;HTU21D;64069;46.396;48.102;2023-08-20T15:27:12;32.45;30.37
75489;HTU21D;64069;46.396;48.102;2023-08-20T15:29:44;32.32;31.46
75489;HTU21D;64069;46.396;48.102;2023-08-20T15:32:11;32.15;31.95
75489;HTU21D;64069;46.396;48.102;2023-08-20T15:34:43;32.03;31.82
75489;HTU21D;64069;46.396;48.102;2023-08-20T15:37:16;31.99;31.72
75489;HTU21D;64069;46.396;48.102;2023-08-20T15:39:48;32.01;31.34